Time;durP1;ratioP1;P1;durP2;ratioP2;P2;SDS_P1;SDS_P2;PMS_P1;PMS_P2;Temp;Humidity;BMP_temperature;BMP_pressure;BME280_temperature;BME280_humidity;BME280_pressure;Samples;Min_cycle;Max_cycle;Signal;HPM_P1;HPM_P2
2023/08/31 00:01:48;;;;;;;3.90;2.20;;;13.80;86.90;;;;;;5075192;28;20036;-74
2023/08/31 00:04:14;;;;;;;2.30;2.08;;;13.90;86.90;;;;;;5074896;28;20053;-74
2023/08/31 00:06:41;;;;;;;3.88;2.72;;;13.90;86.90;;;;;;5075106;28;20530;-77
2023/08/31 00:09:09;;;;;;;5.82;2.58;;;13.90;86.50;;;;;;5074900;28;20475;-74
2023/08/31 00:11:35;;;;;;;4.53;2.30;;;13.90;86.80;;;;;;5074833;28;20074;-76
2023/08/31 00:14:01;;;;;;;2.50;2.30;;;13.80;85.70;;;;;;5075037;28;20044;-72
2023/08/31 00:16:26;;;;;;;3.58;2.13;;;13.80;86.10;;;;;;5074632;28;20020;-74
2023/08/31 00:18:52;;;;;;;3.38;2.40;;;13.70;86.10;;;;;;5074909;28;20024;-78
2023/08/31 00:21:18;;;;;;;3.60;2.30;;;13.60;85.90;;;;;;5074937;28;20021;-75
2023/08/31 00:23:43;;;;;;;3.67;2.60;;;13.60;86.00;;;;;;5073533;28;20020;-78
2023/08/31 00:26:10;;;;;;;4.65;2.45;;;13.50;85.80;;;;;;5074730;28;20082;-77
2023/08/31 00:28:36;;;;;;;4.07;2.38;;;13.40;86.40;;;;;;5074706;28;20064;-78
2023/08/31 00:31:03;;;;;;;3.67;2.67;;;13.40;86.00;;;;;;5074818;28;20020;-76
2023/08/31 00:33:29;;;;;;;3.13;2.58;;;13.40;86.10;;;;;;5074670;28;20028;-74
2023/08/31 00:35:56;;;;;;;5.90;2.58;;;13.40;86.70;;;;;;5074583;28;20028;-74
2023/08/31 00:38:21;;;;;;;4.20;2.47;;;13.40;86.50;;;;;;5074670;28;20035;-74
2023/08/31 00:40:47;;;;;;;4.32;2.47;;;13.40;86.50;;;;;;5073288;28;20119;-77
2023/08/31 00:43:17;;;;;;;3.60;2.58;;;13.40;86.40;;;;;;5074698;28;20471;-76
2023/08/31 00:45:44;;;;;;;3.33;2.35;;;13.40;86.70;;;;;;5074496;28;20553;-74
2023/08/31 00:48:12;;;;;;;5.20;2.60;;;13.50;86.50;;;;;;5074421;28;20037;-74
2023/08/31 00:50:37;;;;;;;3.60;2.10;;;13.60;86.30;;;;;;5073050;28;20021;-75
2023/08/31 00:53:03;;;;;;;3.42;2.72;;;13.60;86.00;;;;;;5074339;28;20039;-76
2023/08/31 00:55:29;;;;;;;3.38;2.30;;;13.60;86.20;;;;;;5074318;28;20036;-74
2023/08/31 00:57:55;;;;;;;3.83;2.42;;;13.70;86.60;;;;;;5072875;28;20441;-76
2023/08/31 01:00:25;;;;;;;4.35;2.65;;;13.60;86.90;;;;;;5074254;28;20525;-74
2023/08/31 01:03:03;;;;;;;4.00;2.30;;;13.60;87.60;;;;;;5074413;28;20047;-74
2023/08/31 01:05:55;;;;;;;4.50;2.78;;;13.60;87.80;;;;;;5074086;28;20016;-75
2023/08/31 01:08:41;;;;;;;4.88;2.90;;;13.50;88.50;;;;;;5073904;28;20036;-74
2023/08/31 01:12:09;;;;;;;5.05;2.60;;;13.40;88.80;;;;;;5074027;28;20036;-75
2023/08/31 01:14:45;;;;;;;3.50;2.60;;;13.40;88.50;;;;;;5020124;28;20124;-73
2023/08/31 01:17:14;;;;;;;3.63;2.30;;;13.40;88.70;;;;;;5031436;28;20048;-74
2023/08/31 01:19:43;;;;;;;4.30;2.22;;;13.40;88.70;;;;;;5055229;28;20040;-77
2023/08/31 01:22:14;;;;;;;2.65;2.10;;;13.40;88.60;;;;;;5073487;28;20017;-75
2023/08/31 01:24:41;;;;;;;3.35;2.20;;;13.50;88.70;;;;;;5073835;28;20413;-76
2023/08/31 01:27:06;;;;;;;4.05;2.50;;;13.50;88.70;;;;;;5073744;28;20487;-76
2023/08/31 01:29:32;;;;;;;3.42;2.20;;;13.60;88.40;;;;;;5072762;28;20071;-75
2023/08/31 01:31:58;;;;;;;4.78;2.47;;;13.60;88.00;;;;;;5073585;28;20077;-76
2023/08/31 01:34:23;;;;;;;3.03;2.42;;;13.60;87.30;;;;;;5072498;28;20021;-76
2023/08/31 01:36:56;;;;;;;3.50;2.30;;;13.50;86.90;;;;;;5073531;28;20481;-74
2023/08/31 01:39:43;;;;;;;4.05;2.53;;;13.60;86.60;;;;;;5073312;28;20044;-75
2023/08/31 01:42:10;;;;;;;5.53;2.72;;;13.60;86.50;;;;;;5073360;28;20150;-76
2023/08/31 01:44:37;;;;;;;4.55;2.60;;;13.60;86.50;;;;;;5073341;28;20017;-74
2023/08/31 01:47:07;;;;;;;3.70;2.78;;;13.50;86.60;;;;;;5073310;28;20082;-76
2023/08/31 01:49:40;;;;;;;5.00;2.95;;;13.50;87.00;;;;;;5072115;28;20039;-74
2023/08/31 01:52:06;;;;;;;4.68;2.55;;;13.50;87.40;;;;;;5073192;28;20024;-74
2023/08/31 01:54:32;;;;;;;4.70;2.50;;;13.40;87.10;;;;;;5073075;28;20109;-74
2023/08/31 01:56:58;;;;;;;3.58;2.50;;;13.40;87.20;;;;;;5072992;28;20043;-74
2023/08/31 01:59:24;;;;;;;4.28;2.40;;;13.30;87.40;;;;;;5072867;28;20021;-74
2023/08/31 02:01:50;;;;;;;4.35;2.50;;;13.30;87.70;;;;;;5073116;28;20478;-74
2023/08/31 02:04:15;;;;;;;3.58;2.60;;;13.30;87.70;;;;;;5072978;28;20466;-73
2023/08/31 02:06:41;;;;;;;2.95;2.35;;;13.30;88.70;;;;;;5072958;28;20068;-74
2023/08/31 02:09:06;;;;;;;3.40;2.63;;;13.30;88.00;;;;;;5072687;28;20040;-76
2023/08/31 02:11:35;;;;;;;4.40;2.58;;;13.30;88.20;;;;;;5072844;28;20032;-75
2023/08/31 02:14:01;;;;;;;3.30;2.42;;;13.30;88.30;;;;;;5072977;28;20456;-73
2023/08/31 02:16:26;;;;;;;3.35;2.65;;;13.30;88.40;;;;;;5072944;28;20020;-73
2023/08/31 02:18:52;;;;;;;3.35;2.20;;;13.30;88.50;;;;;;5071637;28;20025;-74
2023/08/31 02:21:18;;;;;;;4.35;2.45;;;13.30;88.50;;;;;;5072965;28;20025;-73
2023/08/31 02:23:43;;;;;;;4.28;3.13;;;13.30;88.40;;;;;;5072681;28;20021;-76
2023/08/31 02:26:11;;;;;;;3.85;2.22;;;13.30;87.60;;;;;;5072823;28;20024;-73
2023/08/31 02:28:36;;;;;;;5.00;3.03;;;13.30;87.80;;;;;;5072697;28;20042;-74
2023/08/31 02:31:03;;;;;;;5.07;2.70;;;13.30;87.70;;;;;;5072779;28;20099;-76
2023/08/31 02:33:29;;;;;;;3.35;2.70;;;13.30;87.90;;;;;;5072663;28;20021;-75
2023/08/31 02:35:55;;;;;;;5.30;2.80;;;13.30;87.90;;;;;;5071333;28;20035;-75
2023/08/31 02:38:20;;;;;;;4.38;2.53;;;13.30;88.00;;;;;;5072700;28;20364;-77
2023/08/31 02:40:47;;;;;;;4.05;2.53;;;13.30;88.10;;;;;;5076716;28;20028;-77
2023/08/31 02:43:13;;;;;;;7.60;2.67;;;13.30;88.00;;;;;;5079386;28;20440;-78
2023/08/31 02:45:38;;;;;;;4.95;2.40;;;13.30;88.20;;;;;;5079281;28;20107;-78
2023/08/31 02:48:07;;;;;;;4.80;2.47;;;13.30;88.30;;;;;;5077861;28;20132;-75
2023/08/31 02:50:33;;;;;;;4.72;2.85;;;13.30;88.40;;;;;;5079149;28;20020;-73
2023/08/31 02:52:59;;;;;;;5.50;2.90;;;13.30;88.20;;;;;;5079044;28;20032;-75
2023/08/31 02:55:25;;;;;;;3.65;2.40;;;13.20;88.20;;;;;;5079117;28;20412;-74
2023/08/31 02:57:50;;;;;;;4.85;2.40;;;13.30;88.30;;;;;;5079040;28;20035;-75
2023/08/31 03:00:16;;;;;;;4.15;2.63;;;13.30;88.10;;;;;;5079105;28;20044;-76
2023/08/31 03:02:43;;;;;;;4.43;2.67;;;13.30;88.10;;;;;;5079043;28;20129;-75
2023/08/31 03:05:09;;;;;;;4.40;2.58;;;13.30;87.90;;;;;;5079131;28;20013;-76
2023/08/31 03:07:34;;;;;;;3.83;2.40;;;13.30;87.90;;;;;;5079060;28;20025;-76
2023/08/31 03:10:00;;;;;;;3.70;2.50;;;13.30;87.90;;;;;;5078784;28;20404;-75
2023/08/31 03:12:25;;;;;;;5.25;2.45;;;13.30;87.90;;;;;;5079115;28;20024;-79
2023/08/31 03:14:51;;;;;;;5.75;2.63;;;13.30;87.90;;;;;;5078950;28;20385;-79
2023/08/31 03:17:17;;;;;;;3.53;2.25;;;13.30;87.90;;;;;;5078902;28;20366;-79
2023/08/31 03:19:42;;;;;;;4.65;2.10;;;13.30;87.80;;;;;;5078917;28;20123;-78
2023/08/31 03:22:08;;;;;;;5.28;2.67;;;13.30;87.90;;;;;;5078905;28;20025;-78
2023/08/31 03:24:33;;;;;;;8.35;3.03;;;13.20;87.80;;;;;;5078931;28;20029;-78
2023/08/31 03:26:59;;;;;;;5.50;2.60;;;13.20;88.00;;;;;;5078839;28;20024;-77
2023/08/31 03:29:24;;;;;;;4.47;2.38;;;13.30;88.00;;;;;;5078723;28;20040;-78
2023/08/31 03:31:50;;;;;;;7.50;2.60;;;13.30;87.70;;;;;;5078874;28;20059;-78
2023/08/31 03:34:15;;;;;;;3.60;2.22;;;13.20;87.60;;;;;;5078870;28;20032;-78
2023/08/31 03:36:41;;;;;;;3.28;2.25;;;13.20;87.80;;;;;;5078775;28;20029;-75
2023/08/31 03:39:06;;;;;;;6.05;2.92;;;13.20;87.90;;;;;;5078488;28;20086;-78
2023/08/31 03:41:32;;;;;;;6.55;2.72;;;13.20;88.00;;;;;;5078665;28;20056;-79
2023/08/31 03:43:58;;;;;;;4.00;2.63;;;13.30;88.10;;;;;;5078781;28;20025;-77
2023/08/31 03:46:24;;;;;;;5.43;2.67;;;13.20;87.60;;;;;;5078744;28;20024;-77
2023/08/31 03:48:49;;;;;;;5.40;2.70;;;13.10;88.10;;;;;;5078641;28;20488;-78
2023/08/31 03:51:15;;;;;;;4.68;3.00;;;13.10;88.00;;;;;;5077319;28;20020;-77
2023/08/31 03:53:40;;;;;;;3.30;2.65;;;13.10;88.20;;;;;;5074067;28;20020;-78
2023/08/31 03:56:06;;;;;;;3.15;2.47;;;13.10;88.30;;;;;;5075379;28;20055;-79
2023/08/31 03:58:32;;;;;;;3.72;2.42;;;13.10;88.20;;;;;;5075292;28;20036;-79
2023/08/31 04:00:57;;;;;;;2.63;2.40;;;13.10;88.40;;;;;;5075440;28;20167;-77
2023/08/31 04:03:23;;;;;;;4.03;2.65;;;13.10;88.50;;;;;;5075566;28;20025;-77
2023/08/31 04:05:54;;;;;;;5.47;2.72;;;13.20;88.30;;;;;;5075200;28;20021;-78
2023/08/31 04:08:19;;;;;;;4.00;2.53;;;13.20;88.30;;;;;;5075324;28;20032;-77
2023/08/31 04:10:45;;;;;;;4.25;2.72;;;13.20;88.30;;;;;;5074925;28;20052;-76
2023/08/31 04:13:10;;;;;;;6.07;2.80;;;13.20;88.30;;;;;;5073917;28;20052;-75
2023/08/31 04:15:36;;;;;;;4.80;2.90;;;13.30;88.40;;;;;;5075134;28;20498;-74
2023/08/31 04:18:02;;;;;;;4.05;2.53;;;13.30;88.20;;;;;;5075052;28;20033;-76
2023/08/31 04:20:28;;;;;;;3.47;2.30;;;13.30;88.20;;;;;;5073517;28;20071;-76
2023/08/31 04:22:53;;;;;;;5.35;2.92;;;13.30;88.10;;;;;;5075001;28;20025;-78
2023/08/31 04:25:19;;;;;;;3.15;2.50;;;13.30;87.90;;;;;;5074822;28;20382;-77
2023/08/31 04:27:45;;;;;;;3.40;2.47;;;13.30;87.80;;;;;;5074767;28;20036;-78
2023/08/31 04:30:12;;;;;;;4.35;2.40;;;13.30;88.00;;;;;;5074691;28;20103;-77
2023/08/31 04:32:37;;;;;;;4.35;2.00;;;13.40;88.00;;;;;;5074750;28;20024;-76
2023/08/31 04:35:05;;;;;;;3.92;2.53;;;13.40;87.90;;;;;;5074769;28;20519;-76
2023/08/31 04:37:31;;;;;;;4.22;2.42;;;13.40;87.90;;;;;;5073423;28;20114;-77
2023/08/31 04:39:57;;;;;;;5.72;2.80;;;13.40;87.80;;;;;;5074755;28;20031;-76
2023/08/31 04:42:23;;;;;;;5.97;2.80;;;13.40;87.80;;;;;;5074800;28;20028;-77
2023/08/31 04:44:49;;;;;;;3.25;2.30;;;13.40;87.90;;;;;;5074820;28;20028;-76
2023/08/31 04:47:15;;;;;;;6.22;2.80;;;13.40;87.90;;;;;;5074741;28;20155;-77
2023/08/31 04:49:40;;;;;;;5.10;2.70;;;13.30;87.90;;;;;;5074475;28;20481;-73
2023/08/31 04:52:06;;;;;;;5.30;2.60;;;13.30;88.10;;;;;;5072768;28;20025;-74
2023/08/31 04:54:31;;;;;;;4.65;2.28;;;13.30;88.20;;;;;;5074525;28;20029;-73
2023/08/31 04:56:57;;;;;;;3.90;2.50;;;13.30;88.40;;;;;;5074312;28;20021;-72
2023/08/31 04:59:22;;;;;;;4.10;2.58;;;13.30;88.50;;;;;;5074194;28;20074;-72
2023/08/31 05:01:48;;;;;;;5.68;3.00;;;13.30;88.20;;;;;;5072878;28;20024;-74
2023/08/31 05:04:14;;;;;;;4.65;2.78;;;13.20;88.20;;;;;;5074289;28;20024;-78
2023/08/31 05:06:39;;;;;;;6.80;3.20;;;13.20;88.40;;;;;;5073915;28;20029;-77
2023/08/31 05:09:06;;;;;;;4.47;2.60;;;13.20;88.60;;;;;;5073763;28;20094;-77
2023/08/31 05:11:31;;;;;;;4.95;2.55;;;13.20;88.10;;;;;;5074064;28;20120;-75
2023/08/31 05:13:57;;;;;;;4.15;2.85;;;13.20;88.10;;;;;;5074007;28;20048;-78
2023/08/31 05:16:22;;;;;;;3.05;2.28;;;13.10;88.00;;;;;;5074027;28;20100;-77
2023/08/31 05:18:49;;;;;;;4.85;2.47;;;13.10;88.10;;;;;;5073735;28;20031;-75
2023/08/31 05:21:15;;;;;;;4.53;2.67;;;13.10;88.30;;;;;;5073716;28;20036;-76
2023/08/31 05:23:40;;;;;;;5.05;2.55;;;13.10;88.40;;;;;;5073433;28;20076;-77
2023/08/31 05:26:06;;;;;;;5.22;2.60;;;13.20;88.40;;;;;;5073280;28;20029;-76
2023/08/31 05:28:32;;;;;;;5.70;3.05;;;13.20;88.30;;;;;;5073418;28;20066;-75
2023/08/31 05:31:02;;;;;;;4.95;2.72;;;13.30;88.00;;;;;;5073510;28;20032;-74
2023/08/31 05:33:28;;;;;;;5.72;3.05;;;13.30;87.60;;;;;;5073430;28;20024;-76
2023/08/31 05:35:54;;;;;;;7.05;2.75;;;13.20;87.30;;;;;;5072151;28;20048;-77
2023/08/31 05:38:20;;;;;;;5.25;2.60;;;13.30;87.40;;;;;;5073446;28;20544;-76
2023/08/31 05:40:46;;;;;;;5.60;2.75;;;13.30;87.40;;;;;;5073433;28;20025;-76
2023/08/31 05:43:15;;;;;;;4.78;2.45;;;13.30;87.20;;;;;;5073560;28;20017;-78
2023/08/31 05:45:41;;;;;;;4.28;2.33;;;13.40;87.10;;;;;;5073568;28;20029;-82
2023/08/31 05:48:18;;;;;;;6.38;2.90;;;13.50;87.00;;;;;;5073429;28;20023;-79
2023/08/31 05:50:43;;;;;;;7.18;2.90;;;13.50;87.30;;;;;;5073163;28;20032;-77
2023/08/31 05:53:09;;;;;;;3.17;2.38;;;13.50;87.20;;;;;;5073368;28;20021;-80
2023/08/31 05:55:34;;;;;;;4.40;2.65;;;13.60;87.10;;;;;;5073049;28;20028;-76
2023/08/31 05:58:00;;;;;;;5.82;2.60;;;13.70;86.90;;;;;;5073164;28;20059;-73
2023/08/31 06:00:26;;;;;;;4.90;2.72;;;13.80;86.80;;;;;;5073307;28;20374;-76
2023/08/31 06:02:51;;;;;;;4.25;2.53;;;13.90;86.50;;;;;;5073043;28;20032;-79
2023/08/31 06:05:17;;;;;;;5.65;2.95;;;14.00;86.10;;;;;;5073213;28;20522;-75
2023/08/31 06:07:43;;;;;;;5.85;2.63;;;14.10;85.90;;;;;;5072859;28;20032;-77
2023/08/31 06:10:09;;;;;;;5.10;2.63;;;14.20;84.50;;;;;;5063601;28;20049;-76
2023/08/31 06:12:35;;;;;;;4.30;2.95;;;14.40;84.30;;;;;;5052891;28;20025;-77
2023/08/31 06:15:00;;;;;;;2.72;2.17;;;14.40;83.30;;;;;;5052159;28;20029;-74
2023/08/31 06:17:26;;;;;;;5.70;3.13;;;14.40;83.40;;;;;;5052502;28;20013;-76
2023/08/31 06:19:52;;;;;;;4.32;3.20;;;14.50;83.30;;;;;;5061168;28;20032;-77
2023/08/31 06:22:18;;;;;;;4.35;3.50;;;14.50;83.10;;;;;;5061627;28;20025;-77
2023/08/31 06:24:45;;;;;;;7.22;4.07;;;14.60;82.90;;;;;;5054535;28;20469;-77
2023/08/31 06:27:12;;;;;;;7.40;3.38;;;14.60;82.80;;;;;;5051149;28;20021;-73
2023/08/31 06:29:38;;;;;;;4.38;2.85;;;14.60;82.20;;;;;;5052219;28;20028;-72
2023/08/31 06:32:04;;;;;;;18.25;5.65;;;14.70;81.90;;;;;;5052500;28;20021;-77
2023/08/31 06:34:30;;;;;;;5.28;2.83;;;14.90;84.90;;;;;;5052655;28;20078;-75
2023/08/31 06:36:58;;;;;;;5.13;2.60;;;15.00;79.60;;;;;;5053150;28;20045;-75
2023/08/31 06:39:24;;;;;;;6.32;2.80;;;15.20;80.10;;;;;;5053223;28;20021;-76
2023/08/31 06:41:49;;;;;;;9.55;2.60;;;15.30;78.80;;;;;;5053325;28;20033;-74
2023/08/31 06:44:16;;;;;;;5.50;2.60;;;15.40;77.80;;;;;;5053578;28;20025;-80
2023/08/31 06:46:42;;;;;;;9.10;3.00;;;15.40;76.40;;;;;;5053201;28;20114;-77
2023/08/31 06:49:07;;;;;;;6.07;2.60;;;15.30;75.70;;;;;;5054977;28;20095;-78
2023/08/31 06:51:34;;;;;;;6.13;2.83;;;15.20;75.70;;;;;;5058178;28;20032;-89
2023/08/31 06:54:06;;;;;;;6.32;2.28;;;15.00;77.80;;;;;;5058461;28;20052;-88
2023/08/31 06:56:38;;;;;;;5.00;2.50;;;15.00;77.10;;;;;;5056400;28;20021;-77
2023/08/31 06:59:04;;;;;;;4.65;2.40;;;15.00;77.60;;;;;;5053535;28;20107;-77
2023/08/31 07:01:33;;;;;;;5.72;2.45;;;15.20;74.40;;;;;;5054003;28;20574;-88
2023/08/31 07:04:04;;;;;;;5.03;1.95;;;15.10;75.60;;;;;;5054137;28;20458;-86
2023/08/31 07:06:31;;;;;;;9.00;2.90;;;15.20;73.40;;;;;;5054504;28;20021;-75
2023/08/31 07:08:57;;;;;;;4.50;2.40;;;15.10;73.90;;;;;;5058382;28;20056;-81
2023/08/31 07:11:24;;;;;;;8.23;2.60;;;15.20;73.60;;;;;;5055207;28;20041;-77
2023/08/31 07:13:50;;;;;;;7.80;2.58;;;15.10;72.40;;;;;;5056677;28;20032;-81
2023/08/31 07:16:16;;;;;;;7.90;2.90;;;15.30;72.00;;;;;;5056531;28;20021;-75
2023/08/31 07:18:42;;;;;;;6.13;2.20;;;15.40;72.30;;;;;;5054685;28;20064;-84
2023/08/31 07:21:08;;;;;;;3.60;2.17;;;15.50;70.50;;;;;;5058278;28;20032;-87
2023/08/31 07:23:43;;;;;;;6.43;2.50;;;15.70;70.70;;;;;;5058633;28;20491;-80
2023/08/31 07:26:09;;;;;;;5.45;2.53;;;15.70;69.90;;;;;;5055438;28;20564;-77
2023/08/31 07:28:38;;;;;;;7.28;2.40;;;15.60;69.90;;;;;;5057683;28;20067;-76
2023/08/31 07:31:10;;;;;;;7.47;2.90;;;15.60;70.90;;;;;;5061330;28;20067;-82
2023/08/31 07:33:35;;;;;;;6.60;2.40;;;15.30;71.30;;;;;;5059248;28;20033;-81
2023/08/31 07:36:03;;;;;;;7.13;2.88;;;15.30;72.00;;;;;;5056864;28;20032;-81
2023/08/31 07:38:31;;;;;;;6.45;2.38;;;15.40;69.10;;;;;;5057356;28;20116;-80
2023/08/31 07:40:57;;;;;;;6.32;2.60;;;15.30;70.30;;;;;;5065443;28;20032;-77
2023/08/31 07:43:22;;;;;;;6.20;2.45;;;15.50;70.20;;;;;;5063450;28;20056;-84
2023/08/31 07:45:49;;;;;;;11.05;2.50;;;15.60;69.80;;;;;;5065053;28;20025;-78
2023/08/31 07:48:15;;;;;;;8.93;2.58;;;15.70;67.20;;;;;;5061160;28;20059;-78
2023/08/31 07:50:42;;;;;;;6.32;2.55;;;15.30;69.40;;;;;;5055711;28;20037;-78
2023/08/31 07:53:08;;;;;;;5.00;2.28;;;15.20;68.80;;;;;;5055345;28;20094;-78
2023/08/31 07:55:33;;;;;;;8.15;2.47;;;15.10;67.30;;;;;;5054391;28;20112;-75
2023/08/31 07:58:01;;;;;;;5.75;2.60;;;15.10;66.60;;;;;;5054809;28;20044;-73
2023/08/31 08:00:26;;;;;;;4.65;2.17;;;15.10;67.80;;;;;;5054193;28;20029;-74
2023/08/31 08:02:52;;;;;;;5.50;2.97;;;15.10;65.30;;;;;;5054251;28;20079;-75
2023/08/31 08:05:17;;;;;;;7.00;2.47;;;15.10;67.20;;;;;;5054199;28;20024;-75
2023/08/31 08:07:43;;;;;;;5.15;2.70;;;14.90;67.30;;;;;;5054175;28;20045;-74
2023/08/31 08:10:10;;;;;;;4.78;2.40;;;15.10;65.00;;;;;;5054866;28;20056;-76
2023/08/31 08:12:39;;;;;;;6.72;2.65;;;15.30;66.20;;;;;;5055109;28;20027;-74
2023/08/31 08:15:09;;;;;;;7.15;2.20;;;15.40;63.70;;;;;;5054011;28;20025;-75
2023/08/31 08:17:34;;;;;;;4.40;2.05;;;15.60;61.60;;;;;;5055372;28;20033;-75
2023/08/31 08:20:00;;;;;;;6.20;2.72;;;15.80;59.80;;;;;;5055271;28;20099;-75
2023/08/31 08:22:26;;;;;;;5.18;2.70;;;15.80;58.50;;;;;;5055124;28;20101;-75
2023/08/31 08:24:51;;;;;;;4.80;2.40;;;15.80;56.50;;;;;;5055235;28;20037;-75
2023/08/31 08:27:20;;;;;;;6.25;2.45;;;15.80;55.60;;;;;;5055095;28;20051;-73
2023/08/31 08:29:46;;;;;;;8.10;2.67;;;15.70;58.10;;;;;;5054778;28;20032;-73
2023/08/31 08:32:12;;;;;;;6.00;2.10;;;15.70;57.10;;;;;;5054948;28;20037;-74
2023/08/31 08:34:40;;;;;;;6.60;2.58;;;15.70;57.00;;;;;;5055028;28;20035;-73
2023/08/31 08:37:08;;;;;;;7.20;2.30;;;15.50;58.30;;;;;;5053556;28;20020;-77
2023/08/31 08:39:34;;;;;;;6.88;2.33;;;15.40;58.10;;;;;;5054370;28;20029;-74
2023/08/31 08:42:03;;;;;;;5.82;2.72;;;15.40;58.80;;;;;;5053298;28;20505;-73
2023/08/31 08:44:32;;;;;;;7.05;2.70;;;15.50;58.70;;;;;;5054700;28;20063;-72
2023/08/31 08:46:59;;;;;;;5.18;2.35;;;15.70;57.30;;;;;;5053243;28;20021;-77
2023/08/31 08:49:26;;;;;;;5.30;2.58;;;15.90;57.20;;;;;;5053959;28;20033;-75
2023/08/31 08:51:51;;;;;;;8.60;2.80;;;16.10;55.30;;;;;;5054376;28;20033;-75
2023/08/31 08:54:18;;;;;;;3.78;2.17;;;16.10;55.60;;;;;;5053361;28;20028;-76
2023/08/31 08:56:44;;;;;;;4.40;2.10;;;16.10;55.20;;;;;;5054260;28;20109;-75
2023/08/31 08:59:13;;;;;;;5.25;2.35;;;16.20;53.60;;;;;;5059012;28;20442;-77
2023/08/31 09:01:39;;;;;;;7.75;2.78;;;16.20;49.80;;;;;;5054004;28;20017;-75
2023/08/31 09:04:05;;;;;;;4.63;2.30;;;16.30;51.90;;;;;;5054203;28;20532;-76
2023/08/31 09:06:31;;;;;;;9.32;2.60;;;16.40;47.90;;;;;;5054009;28;20025;-75
2023/08/31 09:08:57;;;;;;;5.15;2.47;;;16.40;48.00;;;;;;5052983;28;20478;-75
2023/08/31 09:11:23;;;;;;;8.95;2.90;;;16.40;48.50;;;;;;5052671;28;20059;-76
2023/08/31 09:13:50;;;;;;;5.20;2.17;;;16.20;49.00;;;;;;5052227;28;20021;-76
2023/08/31 09:16:30;;;;;;;7.07;2.22;;;16.30;48.30;;;;;;5053776;28;20018;-76
2023/08/31 09:18:56;;;;;;;3.75;2.25;;;16.50;47.60;;;;;;5051097;28;20479;-74
2023/08/31 09:21:34;;;;;;;4.93;2.30;;;16.70;46.10;;;;;;5052105;28;20056;-75
2023/08/31 09:23:59;;;;;;;5.57;2.08;;;16.60;44.90;;;;;;5051739;28;20474;-76
2023/08/31 09:26:25;;;;;;;5.72;2.22;;;16.40;46.00;;;;;;5053429;28;20029;-76
2023/08/31 09:28:51;;;;;;;4.68;2.33;;;16.40;45.80;;;;;;5053297;28;20139;-76
2023/08/31 09:31:17;;;;;;;6.50;2.53;;;16.50;46.80;;;;;;5053401;28;20092;-77
2023/08/31 09:33:52;;;;;;;5.88;2.88;;;16.60;49.60;;;;;;5053893;28;20071;-75
2023/08/31 09:36:19;;;;;;;8.35;2.50;;;16.90;46.90;;;;;;5053829;28;20013;-76
2023/08/31 09:38:45;;;;;;;6.38;2.90;;;16.90;44.20;;;;;;5053210;28;20033;-75
2023/08/31 09:41:11;;;;;;;3.65;2.35;;;17.00;46.60;;;;;;5053556;28;20021;-75
2023/08/31 09:43:37;;;;;;;7.05;2.72;;;17.30;44.70;;;;;;5053049;28;20025;-72
2023/08/31 09:46:04;;;;;;;4.80;2.70;;;17.40;42.50;;;;;;5053116;28;20021;-74
2023/08/31 09:48:30;;;;;;;5.45;2.38;;;17.30;40.00;;;;;;5052929;28;20021;-75
2023/08/31 09:50:56;;;;;;;5.15;2.40;;;17.40;38.70;;;;;;5052797;28;20031;-72
2023/08/31 09:53:24;;;;;;;9.15;2.85;;;17.20;39.60;;;;;;5052932;28;20021;-74
2023/08/31 09:55:51;;;;;;;6.55;2.60;;;17.20;40.70;;;;;;5051648;28;20025;-72
2023/08/31 09:58:21;;;;;;;7.22;2.58;;;17.10;40.60;;;;;;5052502;28;20029;-74
2023/08/31 10:00:48;;;;;;;7.28;2.35;;;17.20;40.10;;;;;;5052814;28;20108;-76
2023/08/31 10:03:18;;;;;;;5.88;2.60;;;17.10;40.90;;;;;;5052754;28;20017;-73
2023/08/31 10:05:45;;;;;;;7.15;2.70;;;17.50;41.80;;;;;;5052751;28;20071;-73
2023/08/31 10:08:11;;;;;;;10.02;2.78;;;17.90;38.40;;;;;;5052654;28;20095;-73
2023/08/31 10:10:37;;;;;;;6.18;2.45;;;18.00;38.70;;;;;;5052587;28;20069;-75
2023/08/31 10:13:05;;;;;;;9.20;3.42;;;18.30;38.60;;;;;;5052847;28;20056;-73
2023/08/31 10:15:35;;;;;;;8.45;2.67;;;18.00;41.10;;;;;;5051588;28;20100;-74
2023/08/31 10:18:02;;;;;;;4.70;2.20;;;18.20;40.40;;;;;;5055653;28;20100;-76
2023/08/31 10:20:31;;;;;;;7.05;2.38;;;18.50;40.70;;;;;;5035440;28;20037;-73
2023/08/31 10:23:07;;;;;;;7.40;2.33;;;18.70;39.10;;;;;;5051884;28;20520;-73
2023/08/31 10:25:50;;;;;;;7.90;2.50;;;18.70;38.20;;;;;;5051404;28;20040;-73
2023/08/31 10:28:20;;;;;;;6.88;2.58;;;18.60;38.30;;;;;;5053114;28;20135;-73
2023/08/31 10:31:19;;;;;;;7.63;1.95;;;18.30;38.40;;;;;;5052743;28;20032;-74
2023/08/31 10:34:09;;;;;;;5.78;2.55;;;18.00;39.40;;;;;;5019280;28;20033;-74
2023/08/31 10:36:41;;;;;;;4.93;2.15;;;18.00;40.50;;;;;;5051214;28;20033;-74
2023/08/31 10:39:19;;;;;;;7.47;2.33;;;18.30;39.20;;;;;;5052434;28;20032;-73
2023/08/31 10:41:55;;;;;;;6.53;2.38;;;18.70;38.00;;;;;;5052162;28;20021;-75
2023/08/31 10:44:22;;;;;;;6.50;2.40;;;18.70;37.90;;;;;;5051022;28;20021;-75
2023/08/31 10:46:49;;;;;;;5.78;2.40;;;18.60;38.90;;;;;;5050871;28;20021;-75
2023/08/31 10:49:16;;;;;;;7.57;2.38;;;18.60;40.00;;;;;;5052129;28;20025;-73
2023/08/31 10:52:18;;;;;;;7.85;2.63;;;18.70;40.10;;;;;;5051175;28;20029;-73
2023/08/31 10:54:45;;;;;;;8.38;2.50;;;18.90;38.90;;;;;;5049990;28;20033;-73
2023/08/31 10:57:12;;;;;;;5.97;2.38;;;19.10;39.50;;;;;;5052320;28;20104;-76
2023/08/31 10:59:50;;;;;;;7.78;2.30;;;18.90;38.90;;;;;;5052516;28;20510;-72
2023/08/31 11:02:37;;;;;;;4.95;2.20;;;19.00;38.40;;;;;;5055732;28;20064;-73
2023/08/31 11:05:09;;;;;;;4.20;1.90;;;19.20;38.60;;;;;;5056322;28;20043;-73
2023/08/31 11:07:36;;;;;;;6.32;2.50;;;19.40;37.70;;;;;;5056356;28;20037;-73
2023/08/31 11:10:12;;;;;;;5.07;2.38;;;19.30;39.20;;;;;;5054947;28;20511;-72
2023/08/31 11:12:39;;;;;;;4.00;2.13;;;18.90;38.40;;;;;;5056300;28;20021;-72
2023/08/31 11:15:05;;;;;;;5.63;2.13;;;18.50;39.70;;;;;;5056497;28;20112;-73
2023/08/31 11:17:32;;;;;;;7.30;3.00;;;18.50;39.60;;;;;;5056267;28;20033;-73
2023/08/31 11:19:58;;;;;;;6.22;2.13;;;18.40;40.60;;;;;;5055913;28;20073;-75
2023/08/31 11:22:24;;;;;;;5.15;2.22;;;18.60;41.70;;;;;;5055924;28;20057;-73
2023/08/31 11:24:50;;;;;;;4.78;2.40;;;18.80;40.70;;;;;;5055655;28;20462;-73
2023/08/31 11:27:20;;;;;;;5.30;2.65;;;19.10;40.10;;;;;;5055973;28;20017;-73
2023/08/31 11:29:46;;;;;;;4.15;1.92;;;19.10;41.60;;;;;;5054815;28;20120;-74
2023/08/31 11:32:12;;;;;;;6.28;2.25;;;19.30;39.80;;;;;;5056430;28;20100;-76
2023/08/31 11:34:42;;;;;;;6.32;2.25;;;19.60;38.80;;;;;;5057121;28;20112;-73
2023/08/31 11:37:09;;;;;;;6.88;2.35;;;19.60;37.70;;;;;;5058071;28;20078;-73
2023/08/31 11:39:35;;;;;;;5.68;2.20;;;19.70;39.10;;;;;;5055667;28;20485;-76
2023/08/31 11:42:01;;;;;;;6.70;2.47;;;19.60;38.90;;;;;;5055224;28;20040;-74
2023/08/31 11:44:30;;;;;;;8.35;2.80;;;19.70;38.40;;;;;;5055559;28;20063;-74
2023/08/31 11:46:56;;;;;;;4.53;1.92;;;19.70;37.60;;;;;;5055612;28;20379;-75
2023/08/31 11:49:23;;;;;;;6.70;2.05;;;19.50;39.00;;;;;;5055596;28;20037;-75
2023/08/31 11:51:52;;;;;;;7.65;2.13;;;19.30;39.50;;;;;;5055663;28;20506;-74
2023/08/31 11:54:18;;;;;;;5.28;2.33;;;19.60;38.70;;;;;;5054191;28;20405;-75
2023/08/31 11:56:48;;;;;;;4.00;1.90;;;20.00;38.50;;;;;;5055403;28;20104;-75
2023/08/31 11:59:18;;;;;;;3.67;1.67;;;20.00;38.80;;;;;;5055845;28;20033;-75
2023/08/31 12:01:45;;;;;;;7.00;2.08;;;20.00;39.80;;;;;;5054394;28;20018;-74
2023/08/31 12:04:25;;;;;;;4.97;2.38;;;20.00;39.10;;;;;;5055208;28;20021;-74
2023/08/31 12:06:51;;;;;;;6.75;2.40;;;19.80;38.40;;;;;;5055307;28;20044;-75
2023/08/31 12:09:17;;;;;;;5.20;2.13;;;20.10;39.10;;;;;;5054843;28;20068;-77
2023/08/31 12:11:50;;;;;;;7.95;2.47;;;20.50;38.60;;;;;;5055014;28;20519;-75
2023/08/31 12:14:26;;;;;;;8.38;2.38;;;20.60;36.80;;;;;;5053289;28;20079;-73
2023/08/31 12:17:00;;;;;;;6.75;2.28;;;20.50;37.10;;;;;;5053761;28;20031;-72
2023/08/31 12:19:30;;;;;;;6.10;2.25;;;20.30;37.70;;;;;;5053958;28;20029;-74
2023/08/31 12:21:56;;;;;;;7.57;2.15;;;20.50;36.50;;;;;;5053778;28;20033;-74
2023/08/31 12:24:23;;;;;;;3.53;1.98;;;20.90;36.20;;;;;;5053843;28;20021;-73
2023/08/31 12:26:49;;;;;;;3.85;2.00;;;20.90;35.30;;;;;;5053843;28;20394;-73
2023/08/31 12:29:14;;;;;;;5.72;2.13;;;20.80;37.20;;;;;;5053744;28;20037;-73
2023/08/31 12:31:40;;;;;;;5.28;2.33;;;20.80;36.60;;;;;;5056231;28;20032;-73
2023/08/31 12:34:06;;;;;;;6.20;2.58;;;20.70;37.30;;;;;;5055224;28;20025;-73
2023/08/31 12:36:37;;;;;;;5.18;2.67;;;20.60;36.60;;;;;;5054886;28;20590;-73
2023/08/31 12:39:06;;;;;;;4.97;2.28;;;20.30;37.00;;;;;;5053783;28;20025;-74
2023/08/31 12:41:31;;;;;;;7.88;2.53;;;20.20;38.20;;;;;;5053502;28;20024;-72
2023/08/31 12:43:57;;;;;;;8.75;2.35;;;20.00;39.10;;;;;;5054448;28;20494;-74
2023/08/31 12:46:23;;;;;;;7.68;2.42;;;19.90;39.30;;;;;;5053397;28;20367;-74
2023/08/31 12:48:49;;;;;;;6.85;2.30;;;20.00;38.50;;;;;;5053254;28;20049;-73